createdAt,value
2022-09-21T00:00:27.014Z,3.78
2022-09-21T00:02:57.230Z,4.80
2022-09-21T00:05:24.574Z,3.85
2022-09-21T00:08:11.370Z,5.20
2022-09-21T00:10:37.967Z,5.22
2022-09-21T00:13:05.724Z,3.25
2022-09-21T00:15:32.797Z,3.30
2022-09-21T00:18:00.289Z,4.12
2022-09-21T00:20:27.941Z,3.83
2022-09-21T00:23:31.514Z,3.37
2022-09-21T00:29:14.796Z,3.30
2022-09-21T00:31:41.585Z,3.53
2022-09-21T00:34:08.201Z,2.87
2022-09-21T00:36:35.298Z,2.62
2022-09-21T00:39:02.254Z,2.53
2022-09-21T00:41:31.337Z,3.97
2022-09-21T00:44:22.369Z,2.85
2022-09-21T00:46:51.376Z,3.75
2022-09-21T00:49:18.502Z,3.95
2022-09-21T00:51:46.776Z,2.37
2022-09-21T00:54:20.031Z,3.10
2022-09-21T00:57:08.813Z,3.05
2022-09-21T00:59:38.348Z,2.72
2022-09-21T01:02:05.783Z,3.55
2022-09-21T01:04:32.816Z,4.15
2022-09-21T01:07:05.648Z,2.67
2022-09-21T01:09:32.819Z,3.60
2022-09-21T01:16:30.698Z,3.60
2022-09-21T01:19:23.665Z,4.32
2022-09-21T01:22:03.075Z,3.62
2022-09-21T01:24:42.269Z,4.65
2022-09-21T01:27:26.998Z,3.62
2022-09-21T01:30:10.697Z,3.45
2022-09-21T01:33:14.604Z,3.47
2022-09-21T01:35:46.902Z,4.72
2022-09-21T01:38:32.085Z,4.25
2022-09-21T01:41:03.220Z,4.30
2022-09-21T01:43:37.704Z,3.33
2022-09-21T01:46:07.848Z,3.85
2022-09-21T01:52:26.131Z,3.53
2022-09-21T01:54:58.115Z,3.85
2022-09-21T01:57:39.099Z,4.10
2022-09-21T02:00:07.112Z,3.60
2022-09-21T02:02:39.872Z,4.75
2022-09-21T02:05:07.604Z,4.15
2022-09-21T02:07:53.769Z,4.55
2022-09-21T02:10:26.523Z,3.75
2022-09-21T02:13:01.226Z,4.75
2022-09-21T02:16:10.823Z,6.30
2022-09-21T02:18:40.824Z,3.00
2022-09-21T02:21:45.674Z,4.37
2022-09-21T02:27:36.707Z,5.10
2022-09-21T02:30:06.156Z,4.05
2022-09-21T02:33:03.834Z,4.32
2022-09-21T02:36:02.644Z,5.32
2022-09-21T02:38:53.153Z,3.80
2022-09-21T02:41:29.745Z,5.20
2022-09-21T02:44:18.848Z,4.53
2022-09-21T02:46:59.253Z,3.12
2022-09-21T02:49:34.159Z,3.50
2022-09-21T02:52:07.812Z,5.90
2022-09-21T02:54:36.117Z,3.50
2022-09-21T02:57:45.593Z,4.22
2022-09-21T03:00:37.475Z,4.62
2022-09-21T03:03:22.109Z,4.37
2022-09-21T03:05:51.386Z,4.62
2022-09-21T03:08:18.488Z,3.35
2022-09-21T03:10:46.219Z,4.32
2022-09-21T03:13:13.343Z,4.93
2022-09-21T03:16:04.259Z,4.25
2022-09-21T03:18:31.456Z,5.47
2022-09-21T03:20:58.046Z,4.87
2022-09-21T03:23:25.275Z,5.03
2022-09-21T03:25:52.577Z,4.35
2022-09-21T03:28:19.992Z,3.40
2022-09-21T03:31:14.723Z,5.05
2022-09-21T03:34:28.832Z,5.62
2022-09-21T03:36:55.614Z,4.43
2022-09-21T03:39:22.335Z,5.78
2022-09-21T03:41:48.884Z,4.25
2022-09-21T03:44:17.733Z,4.45
2022-09-21T03:46:44.588Z,3.97
2022-09-21T03:49:36.044Z,4.53
2022-09-21T03:52:03.656Z,3.92
2022-09-21T03:54:30.206Z,5.30
2022-09-21T03:56:56.763Z,5.80
2022-09-21T03:59:23.479Z,4.93
2022-09-21T04:01:50.177Z,3.60
2022-09-21T04:04:16.971Z,4.45
2022-09-21T04:10:33.399Z,3.85
2022-09-21T04:13:01.490Z,3.05
2022-09-21T04:15:29.341Z,5.22
2022-09-21T04:17:56.174Z,5.78
2022-09-21T04:20:23.264Z,4.78
2022-09-21T04:22:51.768Z,4.00
2022-09-21T04:25:18.676Z,4.20
2022-09-21T04:27:45.617Z,4.03
2022-09-21T04:30:14.260Z,5.28
2022-09-21T04:32:40.993Z,4.87
2022-09-21T04:35:08.114Z,5.62
2022-09-21T04:37:34.864Z,4.20
2022-09-21T04:40:01.759Z,5.72
2022-09-21T04:42:28.472Z,4.43
2022-09-21T04:44:56.169Z,6.60
2022-09-21T04:47:25.223Z,6.28
2022-09-21T04:49:52.994Z,6.43
2022-09-21T04:52:20.013Z,4.03
2022-09-21T04:54:47.326Z,5.72
2022-09-21T04:57:15.155Z,4.18
2022-09-21T04:59:41.742Z,5.32
2022-09-21T05:02:08.885Z,5.32
2022-09-21T05:04:35.655Z,5.68
2022-09-21T05:07:02.241Z,6.50
2022-09-21T05:10:02.741Z,8.15
2022-09-21T05:12:30.717Z,6.25
2022-09-21T05:14:57.294Z,6.50
2022-09-21T05:17:24.210Z,7.35
2022-09-21T05:19:51.732Z,6.12
2022-09-21T05:22:18.404Z,9.30
2022-09-21T05:25:35.695Z,6.78
2022-09-21T05:28:37.735Z,6.37
2022-09-21T05:31:32.541Z,5.53
2022-09-21T05:34:23.951Z,6.60
2022-09-21T05:37:02.662Z,4.87
2022-09-21T05:39:29.714Z,5.53
2022-09-21T05:41:56.823Z,6.15
2022-09-21T05:44:23.792Z,6.80
2022-09-21T05:46:59.212Z,6.47
2022-09-21T05:49:30.739Z,6.35
2022-09-21T05:52:25.269Z,5.85
2022-09-21T05:55:33.612Z,6.80
2022-09-21T05:58:14.534Z,8.05
2022-09-21T06:01:18.757Z,5.68
2022-09-21T06:03:48.599Z,6.97
2022-09-21T06:06:15.264Z,6.12
2022-09-21T06:08:41.800Z,8.15
2022-09-21T06:11:08.434Z,10.25
2022-09-21T06:13:35.018Z,5.87
2022-09-21T06:16:05.149Z,7.50
2022-09-21T06:18:31.749Z,6.82
2022-09-21T06:20:58.324Z,8.50
2022-09-21T06:23:24.876Z,7.87
2022-09-21T06:25:57.601Z,5.90
2022-09-21T06:28:25.909Z,5.37
2022-09-21T06:30:54.292Z,5.28
2022-09-21T06:33:23.541Z,6.50
2022-09-21T06:35:55.428Z,5.93
2022-09-21T06:38:22.792Z,8.32
2022-09-21T06:40:50.468Z,6.18
2022-09-21T06:43:17.482Z,4.93
2022-09-21T06:45:44.307Z,5.30
2022-09-21T06:48:10.864Z,4.03
2022-09-21T06:50:37.381Z,4.93
2022-09-21T06:53:04.128Z,3.75
2022-09-21T06:55:31.680Z,6.12
2022-09-21T06:58:03.002Z,6.22
2022-09-21T07:00:30.477Z,4.43
2022-09-21T07:02:57.110Z,4.87
2022-09-21T07:05:23.870Z,3.90
2022-09-21T07:07:53.748Z,4.32
2022-09-21T07:10:20.879Z,4.70
2022-09-21T07:12:52.026Z,4.93
2022-09-21T07:15:21.911Z,4.18
2022-09-21T07:18:05.526Z,6.25
2022-09-21T07:20:32.405Z,3.60
2022-09-21T07:22:58.985Z,3.53
2022-09-21T07:25:25.625Z,3.55
2022-09-21T07:27:52.238Z,4.22
2022-09-21T07:30:18.903Z,6.65
2022-09-21T07:32:48.238Z,4.93
2022-09-21T07:35:14.931Z,6.37
2022-09-21T07:37:41.570Z,4.50
2022-09-21T07:40:08.672Z,4.03
2022-09-21T07:42:35.362Z,6.05
2022-09-21T07:45:24.508Z,4.55
2022-09-21T07:47:54.209Z,4.45
2022-09-21T07:50:21.966Z,4.75
2022-09-21T07:52:48.609Z,4.45
2022-09-21T07:55:15.954Z,4.87
2022-09-21T07:58:01.080Z,4.60
2022-09-21T08:01:17.923Z,4.12
2022-09-21T08:04:06.128Z,3.92
2022-09-21T08:06:35.231Z,5.07
2022-09-21T08:09:03.445Z,4.62
2022-09-21T08:11:31.507Z,3.83
2022-09-21T08:14:00.862Z,3.83
2022-09-21T08:16:30.829Z,4.22
2022-09-21T08:18:57.532Z,4.25
2022-09-21T08:21:24.129Z,5.40
2022-09-21T08:23:50.688Z,5.32
2022-09-21T08:26:19.679Z,4.72
2022-09-21T08:28:51.744Z,4.40
2022-09-21T08:31:20.657Z,4.75
2022-09-21T08:34:09.677Z,4.22
2022-09-21T08:37:19.783Z,4.97
2022-09-21T08:39:46.322Z,4.25
2022-09-21T08:42:36.590Z,4.05
2022-09-21T08:45:10.148Z,5.70
2022-09-21T08:47:46.901Z,5.97
2022-09-21T08:50:29.022Z,4.60
2022-09-21T08:53:16.652Z,3.58
2022-09-21T08:55:43.220Z,2.97
2022-09-21T08:58:22.864Z,3.80
2022-09-21T09:01:16.009Z,2.97
2022-09-21T09:04:07.322Z,2.53
2022-09-21T09:06:43.239Z,4.62
2022-09-21T09:13:08.930Z,3.37
2022-09-21T09:15:50.279Z,3.03
2022-09-21T09:18:43.519Z,3.35
2022-09-21T09:21:14.706Z,1.77
2022-09-21T09:26:25.399Z,2.05
2022-09-21T09:28:58.738Z,1.70
2022-09-21T09:31:34.707Z,2.35
2022-09-21T09:34:13.263Z,2.85
2022-09-21T09:36:58.432Z,4.28
2022-09-21T09:39:28.425Z,6.05
2022-09-21T09:42:00.780Z,3.08
2022-09-21T09:44:30.722Z,2.00
2022-09-21T09:47:28.265Z,2.33
2022-09-21T09:50:10.655Z,3.10
2022-09-21T09:52:37.671Z,2.87
2022-09-21T09:55:41.190Z,3.37
2022-09-21T10:00:43.125Z,2.35
2022-09-21T10:03:18.358Z,4.12
2022-09-21T10:05:45.669Z,2.33
2022-09-21T10:08:36.806Z,1.95
2022-09-21T10:11:04.403Z,2.85
2022-09-21T10:13:34.362Z,3.15
2022-09-21T10:16:05.375Z,1.37
2022-09-21T10:18:34.902Z,2.58
2022-09-21T10:21:08.950Z,2.05
2022-09-21T10:23:37.229Z,2.28
2022-09-21T10:26:13.701Z,1.40
2022-09-21T10:29:00.682Z,1.52
2022-09-21T10:31:29.987Z,2.12
2022-09-21T10:34:02.693Z,2.42
2022-09-21T10:36:35.508Z,1.92
2022-09-21T10:41:52.205Z,2.92
2022-09-21T10:44:21.501Z,2.37
2022-09-21T10:46:50.583Z,2.03
2022-09-21T10:49:23.457Z,2.20
2022-09-21T10:54:23.251Z,1.58
2022-09-21T10:56:56.061Z,1.10
2022-09-21T10:59:24.498Z,2.05
2022-09-21T11:01:53.966Z,1.98
2022-09-21T11:04:20.788Z,2.97
2022-09-21T11:06:55.105Z,1.98
2022-09-21T11:09:33.993Z,1.40
2022-09-21T11:12:25.102Z,1.80
2022-09-21T11:15:13.900Z,2.40
2022-09-21T11:17:47.353Z,1.83
2022-09-21T11:20:29.037Z,2.35
2022-09-21T11:23:28.073Z,1.90
2022-09-21T11:26:00.802Z,1.30
2022-09-21T11:29:06.956Z,1.70
2022-09-21T11:32:05.909Z,1.42
2022-09-21T11:34:48.263Z,1.35
2022-09-21T11:37:26.666Z,1.05
2022-09-21T11:40:10.999Z,2.17
2022-09-21T11:46:13.805Z,3.28
2022-09-21T11:48:52.251Z,0.80
2022-09-21T11:52:03.469Z,1.27
2022-09-21T11:54:46.916Z,0.88
2022-09-21T11:57:31.137Z,3.03
2022-09-21T12:00:17.715Z,1.48
2022-09-21T12:03:27.094Z,1.62
2022-09-21T12:06:12.012Z,1.77
2022-09-21T12:09:15.908Z,2.35
2022-09-21T12:11:49.489Z,0.93
2022-09-21T12:14:42.683Z,0.75
2022-09-21T12:21:11.894Z,0.85
2022-09-21T12:23:53.711Z,3.40
2022-09-21T12:26:27.272Z,1.73
2022-09-21T12:29:01.038Z,0.98
2022-09-21T12:31:39.868Z,1.17
2022-09-21T12:34:19.871Z,2.42
2022-09-21T12:37:25.512Z,1.05
2022-09-21T12:40:02.796Z,1.15
2022-09-21T12:42:42.083Z,1.48
2022-09-21T12:45:17.645Z,0.70
2022-09-21T12:47:52.460Z,0.80
2022-09-21T12:50:48.547Z,1.12
2022-09-21T12:53:19.724Z,1.10
2022-09-21T12:56:13.323Z,0.88
2022-09-21T12:58:50.745Z,2.42
2022-09-21T13:01:32.725Z,0.68
2022-09-21T13:03:59.347Z,0.97
2022-09-21T13:06:29.374Z,0.50
2022-09-21T13:08:57.347Z,1.80
2022-09-21T13:11:24.327Z,0.82
2022-09-21T13:13:58.467Z,0.65
2022-09-21T13:16:31.489Z,1.85
2022-09-21T13:19:25.444Z,1.95
2022-09-21T13:22:21.126Z,2.97
2022-09-21T13:25:03.378Z,0.73
2022-09-21T13:28:03.868Z,0.90
2022-09-21T13:30:32.021Z,0.82
2022-09-21T13:32:58.949Z,1.08
2022-09-21T13:35:52.907Z,0.90
2022-09-21T13:38:34.475Z,0.70
2022-09-21T13:41:03.899Z,0.60
2022-09-21T13:44:06.095Z,0.85
2022-09-21T13:46:36.005Z,1.50
2022-09-21T13:49:26.931Z,1.62
2022-09-21T13:52:15.724Z,1.58
2022-09-21T13:54:45.228Z,0.93
2022-09-21T13:57:34.793Z,0.50
2022-09-21T14:00:13.625Z,0.57
2022-09-21T14:02:49.542Z,0.95
2022-09-21T14:05:28.364Z,1.35
2022-09-21T14:08:01.523Z,0.93
2022-09-21T14:10:32.094Z,0.57
2022-09-21T14:13:01.183Z,2.47
2022-09-21T14:15:39.695Z,1.50
2022-09-21T14:18:16.295Z,1.00
2022-09-21T14:21:21.987Z,0.60
2022-09-21T14:24:07.737Z,2.35
2022-09-21T14:26:40.695Z,0.85
2022-09-21T14:29:29.635Z,0.62
2022-09-21T14:32:04.415Z,1.05
2022-09-21T14:34:36.962Z,1.85
2022-09-21T14:37:20.234Z,0.60
2022-09-21T14:39:49.042Z,3.92
2022-09-21T14:42:20.143Z,0.60
2022-09-21T14:44:51.387Z,0.73
2022-09-21T14:47:17.998Z,1.67
2022-09-21T14:50:05.545Z,0.82
2022-09-21T14:52:33.088Z,1.33
2022-09-21T14:55:35.312Z,0.60
2022-09-21T14:58:24.883Z,2.75
2022-09-21T15:00:53.321Z,1.10
2022-09-21T15:03:28.773Z,0.82
2022-09-21T15:06:24.199Z,0.47
2022-09-21T15:09:21.747Z,0.60
2022-09-21T15:11:59.333Z,0.90
2022-09-21T15:14:37.122Z,1.05
2022-09-21T15:17:24.258Z,0.88
2022-09-21T15:19:51.354Z,0.70
2022-09-21T15:22:21.013Z,1.95
2022-09-21T15:24:59.433Z,1.12
2022-09-21T15:27:33.748Z,0.55
2022-09-21T15:30:04.465Z,0.95
2022-09-21T15:32:31.238Z,3.47
2022-09-21T15:35:01.459Z,1.65
2022-09-21T15:37:29.549Z,2.33
2022-09-21T15:40:01.902Z,1.23
2022-09-21T15:42:30.098Z,2.70
2022-09-21T15:45:15.380Z,1.33
2022-09-21T15:47:45.033Z,2.67
2022-09-21T15:50:13.311Z,1.40
2022-09-21T15:52:45.749Z,1.60
2022-09-21T15:55:21.917Z,1.95
2022-09-21T15:57:56.322Z,0.82
2022-09-21T16:00:31.885Z,1.65
2022-09-21T16:03:06.156Z,1.20
2022-09-21T16:05:47.543Z,1.65
2022-09-21T16:08:28.402Z,3.05
2022-09-21T16:11:11.010Z,2.45
2022-09-21T16:13:56.445Z,1.70
2022-09-21T16:16:23.075Z,1.52
2022-09-21T16:18:55.368Z,2.80
2022-09-21T16:21:29.286Z,1.50
2022-09-21T16:23:58.438Z,1.60
2022-09-21T16:26:35.133Z,1.60
2022-09-21T16:29:43.080Z,1.42
2022-09-21T16:32:18.973Z,1.30
2022-09-21T16:34:46.355Z,2.72
2022-09-21T16:37:24.559Z,5.35
2022-09-21T16:39:52.978Z,2.40
2022-09-21T16:42:21.046Z,2.92
2022-09-21T16:44:48.499Z,7.47
2022-09-21T16:47:22.773Z,16.25
2022-09-21T16:49:49.317Z,7.75
2022-09-21T16:52:17.005Z,7.68
2022-09-21T16:54:43.608Z,6.87
2022-09-21T16:57:12.489Z,14.20
2022-09-21T16:59:39.041Z,13.07
2022-09-21T17:02:05.987Z,13.68
2022-09-21T17:04:34.994Z,8.85
2022-09-21T17:07:04.982Z,30.92
2022-09-21T17:09:38.483Z,18.98
2022-09-21T17:12:07.797Z,15.38
2022-09-21T17:14:36.248Z,11.52
2022-09-21T17:17:13.332Z,5.50
2022-09-21T17:19:42.189Z,5.28
2022-09-21T17:22:17.614Z,6.55
2022-09-21T17:24:51.821Z,11.20
2022-09-21T17:27:29.331Z,6.87
2022-09-21T17:29:56.494Z,7.97
2022-09-21T17:32:24.782Z,11.38
2022-09-21T17:35:11.766Z,6.87
2022-09-21T17:37:38.337Z,7.65
2022-09-21T17:40:10.510Z,4.72
2022-09-21T17:42:41.532Z,6.25
2022-09-21T17:45:29.476Z,7.18
2022-09-21T17:47:56.388Z,9.70
2022-09-21T17:50:27.002Z,10.10
2022-09-21T17:53:14.260Z,7.60
2022-09-21T17:55:48.400Z,4.07
2022-09-21T17:58:57.010Z,7.95
2022-09-21T18:01:37.041Z,9.60
2022-09-21T18:04:04.664Z,9.63
2022-09-21T18:06:31.726Z,8.90
2022-09-21T18:08:58.707Z,5.97
2022-09-21T18:11:34.261Z,10.20
2022-09-21T18:14:19.116Z,8.38
2022-09-21T18:17:11.181Z,7.25
2022-09-21T18:20:11.997Z,9.55
2022-09-21T18:23:06.672Z,8.32
2022-09-21T18:25:36.247Z,15.98
2022-09-21T18:28:12.795Z,5.20
2022-09-21T18:30:45.619Z,9.23
2022-09-21T18:33:53.770Z,6.50
2022-09-21T18:36:36.966Z,4.72
2022-09-21T18:42:13.568Z,3.35
2022-09-21T18:48:13.264Z,5.65
2022-09-21T18:51:06.099Z,3.45
2022-09-21T18:56:08.488Z,12.32
2022-09-21T18:58:36.016Z,7.10
2022-09-21T19:01:04.104Z,7.43
2022-09-21T19:03:31.495Z,7.28
2022-09-21T19:06:01.047Z,9.70
2022-09-21T19:08:43.509Z,12.70
2022-09-21T19:11:52.078Z,6.10
2022-09-21T19:14:43.923Z,6.12
2022-09-21T19:17:13.527Z,9.00
2022-09-21T19:20:10.212Z,30.75
2022-09-21T19:23:07.448Z,18.52
2022-09-21T19:25:48.698Z,33.13
2022-09-21T19:28:53.446Z,15.57
2022-09-21T19:31:20.482Z,13.38
2022-09-21T19:33:50.743Z,7.22
2022-09-21T19:36:18.937Z,12.37
2022-09-21T19:38:45.730Z,7.87
2022-09-21T19:42:07.502Z,7.68
2022-09-21T19:44:34.570Z,6.72
2022-09-21T19:47:29.291Z,6.60
2022-09-21T19:50:04.512Z,4.57
2022-09-21T19:52:36.249Z,7.62
2022-09-21T19:55:22.604Z,5.28
2022-09-21T19:58:08.348Z,6.10
2022-09-21T20:00:36.405Z,7.28
2022-09-21T20:03:14.126Z,8.13
2022-09-21T20:05:54.920Z,7.22
2022-09-21T20:08:28.508Z,7.70
2022-09-21T20:11:13.656Z,14.80
2022-09-21T20:14:12.292Z,13.27
2022-09-21T20:16:59.297Z,6.72
2022-09-21T20:19:32.015Z,3.95
2022-09-21T20:22:04.989Z,8.20
2022-09-21T20:27:03.101Z,7.25
2022-09-21T20:29:29.637Z,6.18
2022-09-21T20:31:56.321Z,6.47
2022-09-21T20:34:22.918Z,5.35
2022-09-21T20:36:49.485Z,8.50
2022-09-21T20:39:16.249Z,6.75
2022-09-21T20:41:42.872Z,4.45
2022-09-21T20:44:22.057Z,8.15
2022-09-21T20:46:48.583Z,6.68
2022-09-21T20:49:16.096Z,6.20
2022-09-21T20:51:42.867Z,10.40
2022-09-21T20:54:09.466Z,7.57
2022-09-21T20:56:35.994Z,11.15
2022-09-21T20:59:13.227Z,10.80
2022-09-21T21:02:04.467Z,9.23
2022-09-21T21:04:32.465Z,7.07
2022-09-21T21:06:59.477Z,7.50
2022-09-21T21:09:26.520Z,7.87
2022-09-21T21:11:53.074Z,11.70
2022-09-21T21:14:19.653Z,9.43
2022-09-21T21:19:27.281Z,11.45
2022-09-21T21:21:53.817Z,10.80
2022-09-21T21:24:39.010Z,11.35
2022-09-21T21:27:06.343Z,15.60
2022-09-21T21:29:33.192Z,11.40
2022-09-21T21:32:00.607Z,13.35
2022-09-21T21:35:14.446Z,3.35
2022-09-21T21:37:50.151Z,6.22
2022-09-21T21:40:17.062Z,7.90
2022-09-21T21:42:43.696Z,5.03
2022-09-21T21:45:10.954Z,8.45
2022-09-21T21:47:40.617Z,5.68
2022-09-21T21:50:08.521Z,8.38
2022-09-21T21:52:35.068Z,6.65
2022-09-21T21:55:02.413Z,7.30
2022-09-21T21:57:29.136Z,9.35
2022-09-21T21:59:55.710Z,9.02
2022-09-21T22:02:22.389Z,7.00
2022-09-21T22:04:49.042Z,6.37
2022-09-21T22:07:33.864Z,7.05
2022-09-21T22:10:00.453Z,4.68
2022-09-21T22:12:27.019Z,4.07
2022-09-21T22:14:53.589Z,3.72
2022-09-21T22:17:20.467Z,5.78
2022-09-21T22:19:47.109Z,9.55
2022-09-21T22:22:32.045Z,5.93
2022-09-21T22:25:48.224Z,7.72
2022-09-21T22:28:23.905Z,5.43
2022-09-21T22:30:50.673Z,5.30
2022-09-21T22:33:17.829Z,4.60
2022-09-21T22:35:44.388Z,3.62
2022-09-21T22:38:11.943Z,3.22
2022-09-21T22:40:38.621Z,3.45
2022-09-21T22:43:05.176Z,3.45
2022-09-21T22:45:31.991Z,4.00
2022-09-21T22:47:58.604Z,2.62
2022-09-21T22:50:25.156Z,3.47
2022-09-21T22:52:51.700Z,4.62
2022-09-21T22:55:18.293Z,3.78
2022-09-21T22:57:53.811Z,4.32
2022-09-21T23:00:20.348Z,3.42
2022-09-21T23:02:52.843Z,4.57
2022-09-21T23:05:19.391Z,3.78
2022-09-21T23:07:50.730Z,4.05
2022-09-21T23:10:17.749Z,4.03
2022-09-21T23:13:31.372Z,3.28
2022-09-21T23:16:20.201Z,2.97
2022-09-21T23:18:48.514Z,5.35
2022-09-21T23:21:18.231Z,5.37
2022-09-21T23:23:45.232Z,3.85
2022-09-21T23:26:13.372Z,3.85
2022-09-21T23:28:41.994Z,3.33
2022-09-21T23:31:29.495Z,5.30
2022-09-21T23:33:59.262Z,4.57
2022-09-21T23:36:30.837Z,5.65
2022-09-21T23:38:58.004Z,4.53
2022-09-21T23:41:30.822Z,4.15
2022-09-21T23:43:58.312Z,4.22
2022-09-21T23:47:02.034Z,4.47
2022-09-21T23:52:32.075Z,3.90
2022-09-21T23:54:58.645Z,4.60
2022-09-21T23:57:25.189Z,5.80
2022-09-21T23:59:52.824Z,5.05
